Terminal Aerodrome Forecast
Issued by NWS

Home | Current Version | Previous Version | Text Only | Print | Product List | Glossary On
Versions: 1 2 3 4 5 6 7 8 9 10 11 12 13 14
000
FTUS44 KTSA 231120
TAFXNA
TAF
KXNA 231120Z 2312/2412 00000KT P6SM FEW035 BKN100
      TEMPO 2312/2316 BKN015
     FM231600 32008KT P6SM BKN025
     FM231800 32010G16KT P6SM VCSH BKN040
     FM240100 31005KT P6SM BKN100
     FM240800 30005KT P6SM BKN025=

USA.gov is the U.S. government's official web portal to all federal, state and local government web resources and services.